Portada
Imágenes satélite Pronóstico 15 díasClimaPredicción Marítima Ciclones Rayo AeropuertosFAQ Noticias Acerca
El tiempo : Europa África América del Norte América del Sur Asia Australia-Oceanía Otros
Idiomas Contacto

Chichén Itzá, México

latitud: 20-38-30N, longitud: 088-26-58W, altitud: 31 m


METAR: MMCT 232041Z 16010KT 8SM SCT020 31/24 A2978 RMK 8/400 MSGTX MMMD
TAF: falta

Hora: 15:49 (21:49 UTC)

Observación

El informe se hizo hace 1 hora y 8 minutos, a las 20:41 UTC
Viento 10 kt del sur-sureste
Temperatura 31°C
Humedad 66%
Presión 1008 hPa
Visibilidad: 12.9 km
Nubes dispersas a una altura de 2000 ft

Cambiar las unidades
La información que se ofrece en estas páginas está sujeta a una cláusula de exención de responsabilidad
El tiempo : Europa África América del Norte América del Sur Asia Australia-Oceanía Otros
Imágenes satélite Pronóstico 15 díasClimaPredicción Marítima Ciclones Rayo AeropuertosFAQ Idiomas Contacto Noticias Acerca